createdAt,value
2018-03-22T00:01:47.593Z,39.60
2018-03-22T00:04:13.962Z,33.30
2018-03-22T00:06:42.024Z,20.10
2018-03-22T00:09:09.113Z,39.40
2018-03-22T00:11:35.415Z,34.00
2018-03-22T00:14:02.510Z,40.13
2018-03-22T00:16:28.820Z,38.07
2018-03-22T00:18:55.192Z,31.67
2018-03-22T00:21:21.500Z,42.20
2018-03-22T00:23:47.759Z,38.00
2018-03-22T00:26:14.808Z,34.70
2018-03-22T00:28:41.199Z,27.60
2018-03-22T00:31:07.521Z,33.03
2018-03-22T00:33:33.880Z,25.73
2018-03-22T00:36:00.216Z,35.47
2018-03-22T00:38:26.556Z,28.53
2018-03-22T00:40:52.888Z,39.10
2018-03-22T00:43:19.252Z,43.30
2018-03-22T00:45:45.580Z,35.23
2018-03-22T00:48:11.937Z,35.50
2018-03-22T00:50:38.271Z,31.40
2018-03-22T00:53:04.635Z,28.87
2018-03-22T00:55:30.952Z,37.40
2018-03-22T00:58:09.196Z,36.70
2018-03-22T01:00:36.273Z,35.93
2018-03-22T01:03:02.626Z,33.70
2018-03-22T01:05:29.720Z,28.10
2018-03-22T01:07:56.815Z,34.53
2018-03-22T01:10:23.155Z,35.23
2018-03-22T01:12:49.523Z,35.10
2018-03-22T01:15:15.828Z,32.50
2018-03-22T01:17:42.113Z,27.70
2018-03-22T01:20:08.436Z,21.13
2018-03-22T01:22:35.518Z,50.10
2018-03-22T01:25:01.840Z,17.63
2018-03-22T01:27:28.199Z,29.93
2018-03-22T01:29:55.258Z,31.30
2018-03-22T01:32:21.629Z,39.67
2018-03-22T01:34:48.653Z,31.27
2018-03-22T01:37:15.016Z,31.73
2018-03-22T01:39:41.339Z,22.27
2018-03-22T01:42:07.718Z,26.20
2018-03-22T01:44:34.803Z,31.57
2018-03-22T01:47:01.801Z,20.23
2018-03-22T01:49:28.072Z,30.40
2018-03-22T01:51:54.401Z,25.10
2018-03-22T01:54:20.764Z,17.73
2018-03-22T01:56:47.085Z,26.53
2018-03-22T01:59:14.192Z,24.20
2018-03-22T02:01:40.481Z,14.43
2018-03-22T02:04:06.853Z,21.17
2018-03-22T02:06:33.188Z,24.93
2018-03-22T02:08:59.553Z,26.30
2018-03-22T02:11:26.593Z,22.67
2018-03-22T02:13:53.696Z,16.40
2018-03-22T02:16:20.700Z,22.50
2018-03-22T02:18:47.792Z,17.53
2018-03-22T02:21:14.180Z,16.97
2018-03-22T02:23:41.199Z,20.50
2018-03-22T02:26:08.468Z,22.37
2018-03-22T02:28:35.527Z,18.90
2018-03-22T02:31:01.864Z,21.33
2018-03-22T02:33:28.221Z,21.80
2018-03-22T02:35:54.552Z,21.53
2018-03-22T02:38:20.910Z,26.47
2018-03-22T02:40:47.264Z,17.30
2018-03-22T02:43:14.340Z,14.67
2018-03-22T02:45:40.696Z,20.70
2018-03-22T02:48:07.713Z,16.87
2018-03-22T02:50:34.041Z,20.87
2018-03-22T02:53:00.399Z,19.80
2018-03-22T02:55:26.745Z,11.63
2018-03-22T02:57:53.101Z,15.33
2018-03-22T03:00:19.432Z,10.23
2018-03-22T03:02:45.808Z,13.13
2018-03-22T03:05:12.104Z,17.07
2018-03-22T03:07:39.219Z,16.73
2018-03-22T03:10:05.529Z,20.67
2018-03-22T03:12:31.888Z,16.43
2018-03-22T03:14:58.215Z,9.87
2018-03-22T03:17:24.604Z,20.23
2018-03-22T03:19:50.904Z,27.57
2018-03-22T03:22:17.285Z,17.30
2018-03-22T03:24:44.805Z,18.80
2018-03-22T03:27:11.892Z,19.03
2018-03-22T03:29:38.224Z,25.53
2018-03-22T03:32:04.608Z,24.27
2018-03-22T03:34:31.216Z,9.27
2018-03-22T03:36:57.576Z,22.20
2018-03-22T03:39:23.912Z,23.67
2018-03-22T03:41:50.995Z,29.70
2018-03-22T03:44:17.308Z,17.37
2018-03-22T03:46:43.587Z,25.73
2018-03-22T03:49:09.909Z,28.33
2018-03-22T03:51:36.276Z,23.53
2018-03-22T03:54:03.336Z,18.08
2018-03-22T03:56:30.409Z,26.10
2018-03-22T03:58:56.716Z,26.90
2018-03-22T04:01:23.775Z,28.43
2018-03-22T04:03:50.080Z,30.37
2018-03-22T04:06:16.382Z,36.43
2018-03-22T04:08:42.712Z,27.27
2018-03-22T04:11:09.094Z,32.30
2018-03-22T04:13:35.404Z,32.90
2018-03-22T04:16:02.497Z,36.20
2018-03-22T04:18:28.819Z,20.52
2018-03-22T04:20:55.176Z,35.07
2018-03-22T04:23:21.496Z,36.13
2018-03-22T04:25:47.848Z,31.23
2018-03-22T04:28:14.947Z,29.67
2018-03-22T04:30:41.243Z,26.33
2018-03-22T04:33:07.636Z,28.50
2018-03-22T04:35:33.948Z,37.67
2018-03-22T04:38:00.304Z,47.40
2018-03-22T04:40:26.636Z,41.25
2018-03-22T04:42:52.988Z,48.53
2018-03-22T04:45:19.321Z,51.47
2018-03-22T04:47:45.683Z,41.47
2018-03-22T04:50:12.760Z,51.20
2018-03-22T04:52:39.105Z,50.40
2018-03-22T04:55:05.424Z,43.58
2018-03-22T04:57:31.796Z,55.10
2018-03-22T04:59:58.173Z,57.20
2018-03-22T05:02:24.479Z,31.43
2018-03-22T05:04:51.531Z,50.20
2018-03-22T05:07:18.613Z,54.97
2018-03-22T05:09:44.919Z,70.47
2018-03-22T05:12:11.299Z,64.73
2018-03-22T05:14:38.676Z,48.97
2018-03-22T05:17:05.692Z,49.50
2018-03-22T05:19:32.061Z,43.30
2018-03-22T05:21:58.383Z,65.10
2018-03-22T05:24:26.288Z,70.80
2018-03-22T05:26:52.620Z,49.08
2018-03-22T05:29:19.097Z,84.05
2018-03-22T05:31:45.405Z,59.67
2018-03-22T05:34:11.769Z,42.33
2018-03-22T05:36:38.829Z,66.90
2018-03-22T05:39:05.180Z,70.03
2018-03-22T05:41:31.535Z,86.03
2018-03-22T05:43:57.876Z,64.68
2018-03-22T05:46:24.192Z,65.07
2018-03-22T05:48:50.550Z,86.90
2018-03-22T05:51:16.872Z,58.70
2018-03-22T05:53:43.137Z,105.77
2018-03-22T05:56:09.456Z,45.38
2018-03-22T05:58:35.840Z,94.05
2018-03-22T06:01:02.361Z,50.03
2018-03-22T06:03:28.718Z,70.90
2018-03-22T06:05:55.043Z,83.60
2018-03-22T06:08:21.435Z,93.65
2018-03-22T06:10:47.732Z,50.37
2018-03-22T06:13:14.124Z,119.90
2018-03-22T06:15:40.496Z,93.47
2018-03-22T06:18:06.816Z,108.60
2018-03-22T06:20:33.156Z,118.93
2018-03-22T06:22:59.495Z,98.10
2018-03-22T06:25:25.812Z,97.30
2018-03-22T06:27:52.180Z,108.80
2018-03-22T06:30:18.499Z,58.17
2018-03-22T06:32:45.088Z,92.40
2018-03-22T06:35:11.380Z,97.67
2018-03-22T06:37:37.671Z,48.23
2018-03-22T06:40:04.019Z,80.25
2018-03-22T06:42:30.347Z,104.60
2018-03-22T06:44:56.669Z,77.67
2018-03-22T06:47:23.748Z,110.27
2018-03-22T06:49:50.096Z,34.37
2018-03-22T06:52:17.152Z,82.30
2018-03-22T06:54:43.471Z,109.23
2018-03-22T06:57:10.559Z,102.33
2018-03-22T06:59:36.889Z,79.73
2018-03-22T07:02:03.288Z,101.80
2018-03-22T07:04:30.296Z,96.73
2018-03-22T07:06:56.668Z,53.30
2018-03-22T07:09:22.988Z,59.80
2018-03-22T07:11:50.068Z,62.30
2018-03-22T07:14:16.396Z,78.53
2018-03-22T07:16:42.771Z,78.13
2018-03-22T07:19:09.096Z,67.53
2018-03-22T07:21:35.457Z,51.50
2018-03-22T07:24:02.496Z,39.83
2018-03-22T07:26:28.886Z,58.03
2018-03-22T07:28:55.176Z,30.40
2018-03-22T07:31:22.267Z,76.83
2018-03-22T07:33:48.965Z,70.70
2018-03-22T07:36:15.272Z,51.00
2018-03-22T07:38:41.588Z,53.13
2018-03-22T07:41:07.960Z,37.47
2018-03-22T07:43:41.010Z,68.53
2018-03-22T07:46:07.328Z,63.10
2018-03-22T07:48:33.621Z,67.63
2018-03-22T07:50:59.996Z,56.80
2018-03-22T07:53:26.311Z,76.10
2018-03-22T07:55:52.685Z,72.93
2018-03-22T07:58:19.712Z,44.57
2018-03-22T08:00:46.113Z,33.70
2018-03-22T08:03:15.260Z,54.20
2018-03-22T08:05:42.391Z,5.63
2018-03-22T08:08:08.680Z,0.40
2018-03-22T08:10:35.033Z,0.70
2018-03-22T08:13:01.414Z,0.70
2018-03-22T08:15:28.463Z,0.50
2018-03-22T08:17:55.493Z,0.40
2018-03-22T08:20:21.870Z,0.40
2018-03-22T08:22:48.203Z,0.50
2018-03-22T08:25:14.549Z,0.50
2018-03-22T08:27:40.866Z,0.70
2018-03-22T08:30:22.180Z,0.40
2018-03-22T08:32:48.523Z,0.40
2018-03-22T08:35:15.187Z,0.40
2018-03-22T08:37:42.225Z,0.40
2018-03-22T08:40:09.319Z,0.50
2018-03-22T08:42:35.640Z,0.40
2018-03-22T08:45:02.030Z,0.50
2018-03-22T08:47:29.054Z,1.30
2018-03-22T08:49:55.446Z,1.53
2018-03-22T08:52:21.732Z,0.93
2018-03-22T08:54:48.113Z,0.50
2018-03-22T08:57:14.440Z,0.40
2018-03-22T08:59:40.810Z,0.50
2018-03-22T09:02:07.119Z,0.40
2018-03-22T09:04:33.485Z,0.40
2018-03-22T09:06:59.846Z,0.50
2018-03-22T09:09:26.882Z,0.60
2018-03-22T09:11:53.933Z,1.00
2018-03-22T09:14:21.068Z,0.50
2018-03-22T09:16:47.347Z,0.40
2018-03-22T09:19:13.708Z,0.50
2018-03-22T09:21:40.028Z,2.80
2018-03-22T09:24:06.540Z,0.40
2018-03-22T09:26:32.840Z,0.40
2018-03-22T09:28:59.916Z,0.40
2018-03-22T09:31:26.241Z,0.70
2018-03-22T09:33:52.559Z,0.40
2018-03-22T09:36:18.944Z,1.00
2018-03-22T09:38:45.250Z,1.03
2018-03-22T09:41:11.520Z,1.87
2018-03-22T09:43:37.848Z,0.50
2018-03-22T09:46:04.220Z,0.50
2018-03-22T09:48:30.552Z,0.60
2018-03-22T09:50:56.899Z,0.70
2018-03-22T09:53:23.226Z,0.70
2018-03-22T09:55:49.587Z,0.40
2018-03-22T09:58:15.916Z,0.47
2018-03-22T10:00:42.281Z,0.50
2018-03-22T10:03:09.328Z,0.40
2018-03-22T10:05:35.716Z,0.60
2018-03-22T10:08:02.029Z,0.50
2018-03-22T10:10:28.372Z,0.83
2018-03-22T10:12:54.704Z,0.60
2018-03-22T10:15:21.064Z,0.40
2018-03-22T10:17:47.391Z,0.40
2018-03-22T10:20:13.784Z,0.40
2018-03-22T10:22:40.085Z,0.50
2018-03-22T10:25:07.137Z,0.40
2018-03-22T10:27:34.213Z,0.50
2018-03-22T10:30:00.560Z,0.40
2018-03-22T10:32:26.917Z,0.40
2018-03-22T10:34:53.260Z,0.77
2018-03-22T10:37:20.336Z,0.40
2018-03-22T10:39:46.639Z,0.40
2018-03-22T10:42:13.730Z,0.50
2018-03-22T10:44:40.041Z,0.40
2018-03-22T10:47:06.320Z,0.40
2018-03-22T10:49:32.643Z,0.40
2018-03-22T10:51:59.019Z,0.90
2018-03-22T10:54:26.056Z,0.40
2018-03-22T10:56:53.163Z,0.40
2018-03-22T10:59:19.451Z,0.47
2018-03-22T11:01:51.948Z,1.07
2018-03-22T11:04:21.250Z,0.40
2018-03-22T11:06:47.630Z,0.50
2018-03-22T11:09:14.680Z,0.50
2018-03-22T11:11:41.755Z,0.40
2018-03-22T11:14:08.118Z,0.40
2018-03-22T11:16:34.434Z,0.67
2018-03-22T11:19:00.771Z,0.40
2018-03-22T11:21:27.127Z,0.90
2018-03-22T11:23:53.468Z,1.67
2018-03-22T11:26:19.792Z,0.40
2018-03-22T11:28:46.160Z,0.40
2018-03-22T11:31:13.199Z,0.73
2018-03-22T11:33:40.290Z,1.70
2018-03-22T11:36:06.605Z,0.50
2018-03-22T11:38:32.986Z,0.70
2018-03-22T11:40:59.359Z,0.40
2018-03-22T11:43:25.661Z,0.40
2018-03-22T11:45:53.207Z,0.40
2018-03-22T11:48:19.528Z,0.40
2018-03-22T11:50:45.859Z,0.40
2018-03-22T11:53:12.168Z,0.40
2018-03-22T11:55:38.504Z,0.40
2018-03-22T11:58:04.889Z,0.40
2018-03-22T12:00:31.904Z,1.53
2018-03-22T12:02:58.310Z,1.57
2018-03-22T12:05:25.339Z,0.50
2018-03-22T12:07:51.665Z,0.40
2018-03-22T12:10:17.993Z,0.40
2018-03-22T12:12:44.373Z,0.40
2018-03-22T12:15:10.764Z,0.50
2018-03-22T12:17:37.059Z,0.50
2018-03-22T12:20:04.124Z,0.60
2018-03-22T12:22:30.463Z,0.50
2018-03-22T12:24:57.504Z,0.40
2018-03-22T12:27:24.620Z,0.80
2018-03-22T12:29:50.911Z,0.40
2018-03-22T12:32:17.282Z,0.40
2018-03-22T12:34:43.584Z,0.40
2018-03-22T12:37:09.956Z,0.40
2018-03-22T12:39:36.294Z,0.50
2018-03-22T12:42:03.376Z,3.80
2018-03-22T12:44:29.689Z,0.40
2018-03-22T12:46:56.180Z,0.97
2018-03-22T12:49:22.486Z,0.50
2018-03-22T12:51:48.862Z,0.40
2018-03-22T12:54:15.401Z,0.40
2018-03-22T12:56:41.748Z,0.40
2018-03-22T12:59:08.793Z,0.40
2018-03-22T13:01:35.868Z,0.40
2018-03-22T13:04:02.217Z,0.60
2018-03-22T13:06:28.564Z,0.50
2018-03-22T13:08:54.883Z,0.40
2018-03-22T13:11:21.248Z,0.50
2018-03-22T13:13:47.592Z,16.90
2018-03-22T13:16:14.664Z,0.80
2018-03-22T13:18:41.028Z,0.40
2018-03-22T13:21:07.358Z,0.40
2018-03-22T13:23:33.672Z,0.80
2018-03-22T13:26:00.038Z,1.40
2018-03-22T13:28:26.356Z,0.40
2018-03-22T13:30:52.724Z,0.40
2018-03-22T13:33:19.756Z,0.40
2018-03-22T13:35:46.125Z,0.50
2018-03-22T13:38:12.468Z,2.37
2018-03-22T13:40:38.922Z,0.40
2018-03-22T13:43:05.233Z,0.50
2018-03-22T13:45:31.493Z,2.47
2018-03-22T13:47:57.844Z,0.40
2018-03-22T13:50:24.172Z,0.90
2018-03-22T13:52:50.540Z,0.50
2018-03-22T13:55:16.859Z,0.50
2018-03-22T13:57:43.228Z,2.10
2018-03-22T14:00:09.562Z,0.43
2018-03-22T14:02:35.933Z,0.40
2018-03-22T14:05:02.984Z,0.50
2018-03-22T14:07:30.054Z,0.60
2018-03-22T14:09:56.362Z,0.50
2018-03-22T14:12:23.466Z,0.60
2018-03-22T14:14:49.796Z,0.40
2018-03-22T14:17:16.144Z,0.50
2018-03-22T14:19:42.483Z,0.40
2018-03-22T14:22:08.824Z,0.40
2018-03-22T14:24:35.155Z,0.40
2018-03-22T14:27:01.528Z,0.40
2018-03-22T14:29:27.848Z,0.50
2018-03-22T14:31:54.236Z,0.40
2018-03-22T14:34:21.574Z,0.50
2018-03-22T14:36:47.932Z,0.40
2018-03-22T14:39:14.266Z,0.40
2018-03-22T14:41:40.611Z,0.40
2018-03-22T14:44:07.672Z,0.40
2018-03-22T14:46:34.018Z,0.50
2018-03-22T14:49:00.351Z,0.40
2018-03-22T14:51:26.689Z,0.80
2018-03-22T14:53:53.040Z,0.40
2018-03-22T14:56:19.390Z,0.40
2018-03-22T14:58:45.735Z,0.40
2018-03-22T15:01:13.087Z,0.40
2018-03-22T15:03:39.459Z,0.40
2018-03-22T15:06:05.784Z,0.40
2018-03-22T15:08:32.144Z,0.40
2018-03-22T15:10:58.458Z,0.40
2018-03-22T15:13:25.564Z,0.40
2018-03-22T15:15:52.627Z,0.40
2018-03-22T15:18:19.684Z,0.50
2018-03-22T15:20:46.015Z,0.40
2018-03-22T15:23:12.388Z,0.40
2018-03-22T15:25:38.680Z,0.43
2018-03-22T15:28:04.969Z,0.40
2018-03-22T15:30:31.300Z,0.50
2018-03-22T15:32:57.641Z,0.40
2018-03-22T15:35:26.835Z,0.40
2018-03-22T15:37:53.208Z,0.40
2018-03-22T15:40:19.521Z,0.50
2018-03-22T15:42:45.896Z,0.50
2018-03-22T15:45:12.212Z,0.40
2018-03-22T15:47:38.623Z,0.40
2018-03-22T15:50:05.656Z,1.17
2018-03-22T15:52:32.676Z,0.40
2018-03-22T15:54:58.939Z,0.40
2018-03-22T15:57:25.269Z,0.40
2018-03-22T15:59:52.356Z,0.40
2018-03-22T16:02:18.724Z,0.40
2018-03-22T16:04:45.141Z,0.50
2018-03-22T16:07:11.485Z,0.40
2018-03-22T16:09:37.840Z,0.40
2018-03-22T16:12:04.899Z,0.50
2018-03-22T16:14:31.215Z,0.40
2018-03-22T16:16:58.284Z,0.40
2018-03-22T16:19:24.742Z,0.40
2018-03-22T16:21:51.788Z,0.47
2018-03-22T16:24:18.173Z,0.40
2018-03-22T16:26:45.232Z,0.40
2018-03-22T16:29:11.562Z,0.40
2018-03-22T16:31:38.629Z,0.40
2018-03-22T16:34:04.979Z,0.40
2018-03-22T16:36:31.300Z,0.40
2018-03-22T16:38:57.666Z,0.40
2018-03-22T16:41:24.014Z,0.40
2018-03-22T16:43:51.069Z,1.17
2018-03-22T16:46:18.112Z,0.40
2018-03-22T16:48:45.196Z,0.40
2018-03-22T16:51:11.512Z,0.50
2018-03-22T16:53:37.892Z,0.50
2018-03-22T16:56:04.236Z,0.40
2018-03-22T16:58:30.560Z,0.40
2018-03-22T17:00:56.888Z,0.40
2018-03-22T17:03:23.268Z,0.40
2018-03-22T17:05:49.589Z,0.40
2018-03-22T17:08:16.673Z,0.40
2018-03-22T17:10:42.992Z,0.50
2018-03-22T17:13:09.367Z,0.40
2018-03-22T17:15:35.674Z,0.40
2018-03-22T17:18:02.060Z,0.40
2018-03-22T17:20:29.101Z,0.40
2018-03-22T17:22:56.220Z,0.40
2018-03-22T17:25:22.492Z,0.40
2018-03-22T17:27:49.586Z,0.50
2018-03-22T17:30:16.071Z,0.50
2018-03-22T17:32:43.184Z,0.40
2018-03-22T17:35:09.705Z,0.40
2018-03-22T17:37:39.570Z,0.40
2018-03-22T17:40:05.988Z,0.50
2018-03-22T17:42:33.172Z,0.40
2018-03-22T17:44:59.564Z,0.40
2018-03-22T17:47:25.899Z,0.40
2018-03-22T17:49:53.516Z,0.40
2018-03-22T17:52:19.848Z,0.40
2018-03-22T17:54:46.134Z,0.40
2018-03-22T17:57:13.163Z,0.40
2018-03-22T17:59:39.428Z,0.40
2018-03-22T18:02:05.732Z,0.40
2018-03-22T18:04:32.745Z,0.40
2018-03-22T18:06:59.050Z,0.40
2018-03-22T18:09:25.419Z,0.40
2018-03-22T18:11:51.771Z,0.50
2018-03-22T18:14:18.787Z,0.40
2018-03-22T18:16:45.052Z,0.40
2018-03-22T18:19:12.133Z,0.50
2018-03-22T18:21:38.476Z,0.53
2018-03-22T18:24:04.848Z,0.50
2018-03-22T18:26:31.155Z,0.40
2018-03-22T18:28:57.508Z,0.50
2018-03-22T18:31:24.758Z,0.50
2018-03-22T18:33:51.504Z,0.40
2018-03-22T18:36:18.811Z,0.50
2018-03-22T18:38:45.554Z,0.40
2018-03-22T18:41:12.396Z,0.40
2018-03-22T18:43:39.175Z,0.40
2018-03-22T18:46:05.859Z,0.40
2018-03-22T18:48:32.777Z,0.40
2018-03-22T18:50:59.280Z,0.40
2018-03-22T18:53:26.362Z,0.40
2018-03-22T18:55:53.140Z,0.40
2018-03-22T18:58:19.910Z,0.40
2018-03-22T19:00:47.688Z,0.40
2018-03-22T19:03:14.771Z,0.40
2018-03-22T19:05:42.129Z,0.43
2018-03-22T19:08:09.113Z,0.40
2018-03-22T19:10:35.390Z,0.40
2018-03-22T19:13:02.838Z,0.40
2018-03-22T19:15:31.370Z,0.40
2018-03-22T19:17:57.681Z,0.50
2018-03-22T19:20:23.989Z,0.40
2018-03-22T19:22:50.986Z,0.50
2018-03-22T19:25:17.238Z,0.50
2018-03-22T19:27:43.497Z,0.40
2018-03-22T19:30:09.808Z,0.40
2018-03-22T19:32:36.856Z,0.40
2018-03-22T19:35:03.852Z,0.50
2018-03-22T19:37:30.864Z,0.40
2018-03-22T19:39:57.851Z,0.50
2018-03-22T19:42:24.124Z,0.40
2018-03-22T19:44:51.113Z,0.40
2018-03-22T19:47:17.394Z,0.40
2018-03-22T19:49:43.780Z,0.40
2018-03-22T19:52:10.071Z,0.47
2018-03-22T19:54:37.127Z,0.50
2018-03-22T19:57:03.392Z,0.50
2018-03-22T19:59:29.676Z,0.40
2018-03-22T20:01:56.656Z,0.50
2018-03-22T20:04:22.931Z,0.40
2018-03-22T20:06:49.181Z,0.50
2018-03-22T20:09:16.226Z,0.40
2018-03-22T20:11:43.223Z,0.40
2018-03-22T20:14:09.523Z,0.40
2018-03-22T20:16:35.858Z,0.40
2018-03-22T20:19:02.264Z,0.40
2018-03-22T20:21:29.324Z,0.40
2018-03-22T20:23:56.368Z,0.40
2018-03-22T20:26:23.383Z,0.40
2018-03-22T20:28:49.764Z,0.40
2018-03-22T20:31:16.064Z,0.40
2018-03-22T20:33:43.128Z,0.40
2018-03-22T20:36:09.433Z,0.40
2018-03-22T20:38:35.818Z,0.40
2018-03-22T20:41:02.105Z,0.40
2018-03-22T20:43:29.152Z,0.40
2018-03-22T20:45:56.139Z,0.40
2018-03-22T20:48:22.404Z,0.40
2018-03-22T20:50:48.647Z,0.47
2018-03-22T20:53:16.480Z,0.40
2018-03-22T20:55:42.744Z,0.50
2018-03-22T20:58:14.221Z,0.50
2018-03-22T21:00:44.392Z,0.50
2018-03-22T21:03:13.240Z,0.40
2018-03-22T21:05:39.538Z,0.50
2018-03-22T21:08:06.607Z,0.40
2018-03-22T21:10:33.264Z,0.40
2018-03-22T21:13:00.011Z,0.40
2018-03-22T21:15:33.907Z,0.50
2018-03-22T21:18:00.776Z,0.50
2018-03-22T21:20:48.847Z,0.40
2018-03-22T21:23:16.807Z,0.40
2018-03-22T21:25:44.025Z,0.40
2018-03-22T21:28:10.435Z,3.10
2018-03-22T21:30:36.788Z,0.50
2018-03-22T21:33:03.259Z,0.50
2018-03-22T21:35:29.599Z,0.40
2018-03-22T21:37:55.943Z,0.40
2018-03-22T21:40:23.001Z,0.40
2018-03-22T21:42:50.068Z,0.40
2018-03-22T21:45:16.456Z,0.40
2018-03-22T21:47:42.862Z,0.40
2018-03-22T21:50:09.199Z,0.40
2018-03-22T21:52:43.708Z,0.47
2018-03-22T21:55:10.081Z,0.40
2018-03-22T21:57:37.152Z,0.40
2018-03-22T22:00:03.936Z,0.50
2018-03-22T22:02:30.323Z,0.40
2018-03-22T22:04:56.746Z,0.40
2018-03-22T22:07:23.824Z,0.40
2018-03-22T22:09:51.016Z,0.50
2018-03-22T22:12:17.352Z,0.40
2018-03-22T22:14:45.671Z,0.40
2018-03-22T22:17:12.092Z,0.47
2018-03-22T22:19:38.524Z,0.40
2018-03-22T22:24:59.582Z,0.40
2018-03-22T22:27:25.822Z,0.40
2018-03-22T22:29:52.184Z,0.40
2018-03-22T22:32:19.218Z,0.50
2018-03-22T22:34:45.840Z,12.63
2018-03-22T22:37:12.118Z,13.53
2018-03-22T22:39:38.394Z,12.73
2018-03-22T22:42:05.417Z,17.73
2018-03-22T22:44:31.952Z,14.43
2018-03-22T22:46:58.191Z,15.63
2018-03-22T22:49:24.480Z,16.70
2018-03-22T22:51:50.808Z,15.93
2018-03-22T22:54:17.190Z,16.57
2018-03-22T22:56:43.529Z,14.80
2018-03-22T22:59:10.567Z,15.10
2018-03-22T23:01:36.913Z,11.73
2018-03-22T23:04:03.272Z,15.13
2018-03-22T23:06:30.302Z,16.80
2018-03-22T23:08:56.570Z,17.37
2018-03-22T23:11:23.609Z,13.80
2018-03-22T23:13:49.879Z,16.73
2018-03-22T23:16:16.896Z,14.30
2018-03-22T23:18:58.142Z,13.80
2018-03-22T23:21:39.316Z,14.20
2018-03-22T23:24:05.712Z,14.67
2018-03-22T23:26:32.039Z,15.73
2018-03-22T23:28:58.328Z,15.73
2018-03-22T23:31:24.686Z,13.77
2018-03-22T23:33:50.925Z,16.37
2018-03-22T23:36:17.208Z,15.63
2018-03-22T23:38:43.503Z,16.97
2018-03-22T23:41:09.752Z,14.70
2018-03-22T23:43:36.009Z,16.60
2018-03-22T23:46:03.311Z,15.20
2018-03-22T23:48:29.606Z,17.17
2018-03-22T23:50:55.842Z,15.40
2018-03-22T23:53:22.120Z,17.30
2018-03-22T23:55:48.439Z,18.63
2018-03-22T23:58:14.828Z,19.87
